Terminal Aerodrome Forecast
Issued by NWS

Home | Current Version | Previous Version | Text Only | Print | Product List | Glossary On
Versions: 1 2 3 4 5 6 7 8 9 10 11 12 13 14 15 16
000
FTUS45 KTFX 271922 AAA
TAFLWT
TAF AMD
KLWT 271922Z 2719/2818 30011G20KT P6SM VCTS SCT035CB BKN080
      TEMPO 2719/2722 VRB15G30KT 5SM TSRA BKN035CB
     FM280200 32007KT P6SM FEW060 FEW200
     FM281400 28009KT P6SM FEW150=

USA.gov is the U.S. government's official web portal to all federal, state and local government web resources and services.